createdAt,value
2018-04-24T00:00:19.385Z,0
2018-04-24T00:00:59.905Z,0
2018-04-24T00:01:40.421Z,0
2018-04-24T00:02:20.933Z,0
2018-04-24T00:03:01.458Z,0
2018-04-24T00:03:41.982Z,0
2018-04-24T00:04:22.518Z,0
2018-04-24T00:05:03.069Z,0
2018-04-24T00:05:43.588Z,0
2018-04-24T00:06:24.116Z,0
2018-04-24T00:07:04.660Z,0
2018-04-24T00:07:45.183Z,0
2018-04-24T00:08:25.701Z,0
2018-04-24T00:09:06.220Z,0
2018-04-24T00:09:46.808Z,0
2018-04-24T00:10:27.268Z,0
2018-04-24T00:11:07.786Z,0
2018-04-24T00:11:48.307Z,0
2018-04-24T00:12:28.865Z,0
2018-04-24T00:13:09.368Z,0
2018-04-24T00:13:49.885Z,0
2018-04-24T00:14:30.411Z,0
2018-04-24T00:15:10.932Z,0
2018-04-24T00:15:51.460Z,0
2018-04-24T00:16:31.993Z,0
2018-04-24T00:17:12.514Z,0
2018-04-24T00:17:53.035Z,0
2018-04-24T00:18:33.556Z,0
2018-04-24T00:19:14.169Z,0
2018-04-24T00:19:54.677Z,0
2018-04-24T00:20:35.201Z,0
2018-04-24T00:21:15.716Z,0
2018-04-24T00:21:56.230Z,0
2018-04-24T00:22:36.759Z,0
2018-04-24T00:23:17.277Z,0
2018-04-24T00:23:57.793Z,0
2018-04-24T00:24:38.312Z,0
2018-04-24T00:25:18.821Z,0
2018-04-24T00:25:59.425Z,0
2018-04-24T00:26:39.870Z,0
2018-04-24T00:27:20.390Z,0
2018-04-24T00:28:00.924Z,0
2018-04-24T00:28:41.424Z,0
2018-04-24T00:29:21.950Z,0
2018-04-24T00:30:02.471Z,0
2018-04-24T00:30:42.997Z,0
2018-04-24T00:31:23.544Z,0
2018-04-24T00:32:04.070Z,0
2018-04-24T00:32:44.592Z,0
2018-04-24T00:33:25.109Z,0
2018-04-24T00:34:05.654Z,0
2018-04-24T00:34:46.177Z,0
2018-04-24T00:35:26.700Z,0
2018-04-24T00:36:07.219Z,0
2018-04-24T00:36:47.747Z,0
2018-04-24T00:37:28.252Z,0
2018-04-24T00:38:08.784Z,0
2018-04-24T00:38:49.297Z,0
2018-04-24T00:39:29.816Z,0
2018-04-24T00:40:10.346Z,0
2018-04-24T00:40:50.879Z,0
2018-04-24T00:41:31.395Z,0
2018-04-24T00:42:11.923Z,0
2018-04-24T00:42:52.442Z,0
2018-04-24T00:43:32.971Z,0
2018-04-24T00:44:13.481Z,0
2018-04-24T00:44:54.020Z,0
2018-04-24T00:45:34.542Z,0
2018-04-24T00:46:15.059Z,0
2018-04-24T00:46:55.578Z,0
2018-04-24T00:47:36.094Z,0
2018-04-24T00:48:16.624Z,0
2018-04-24T00:48:57.138Z,0
2018-04-24T00:49:37.663Z,0
2018-04-24T00:50:18.193Z,0
2018-04-24T00:50:58.724Z,0
2018-04-24T00:51:39.242Z,0
2018-04-24T00:52:19.758Z,0
2018-04-24T00:53:00.285Z,0
2018-04-24T00:53:40.810Z,0
2018-04-24T00:54:21.321Z,0
2018-04-24T00:55:01.854Z,0
2018-04-24T00:55:42.375Z,0
2018-04-24T00:56:22.906Z,0
2018-04-24T00:57:03.423Z,0
2018-04-24T00:57:44.069Z,0
2018-04-24T00:58:24.588Z,0
2018-04-24T00:59:05.097Z,0
2018-04-24T00:59:45.616Z,0
2018-04-24T01:00:26.139Z,0
2018-04-24T01:01:06.653Z,0
2018-04-24T01:01:47.171Z,0
2018-04-24T01:02:27.747Z,0
2018-04-24T01:03:08.198Z,0
2018-04-24T01:03:48.713Z,0
2018-04-24T01:04:29.236Z,0
2018-04-24T01:05:09.752Z,0
2018-04-24T01:05:50.266Z,0
2018-04-24T01:06:30.799Z,0
2018-04-24T01:07:11.315Z,0
2018-04-24T01:07:51.830Z,0
2018-04-24T01:08:32.354Z,0
2018-04-24T01:09:12.869Z,0
2018-04-24T01:09:53.393Z,0
2018-04-24T01:10:33.917Z,0
2018-04-24T01:11:14.453Z,0
2018-04-24T01:11:54.964Z,0
2018-04-24T01:12:35.504Z,0
2018-04-24T01:13:16.017Z,0
2018-04-24T01:13:56.539Z,0
2018-04-24T01:14:37.058Z,0
2018-04-24T01:15:17.576Z,0
2018-04-24T01:15:58.094Z,0
2018-04-24T01:16:38.612Z,0
2018-04-24T01:17:19.139Z,0
2018-04-24T01:17:59.678Z,0
2018-04-24T01:18:40.217Z,0
2018-04-24T01:19:20.737Z,0
2018-04-24T01:20:01.261Z,0
2018-04-24T01:20:41.778Z,0
2018-04-24T01:21:22.295Z,0
2018-04-24T01:22:02.804Z,0
2018-04-24T01:22:43.323Z,0
2018-04-24T01:23:23.838Z,0
2018-04-24T01:24:04.358Z,0
2018-04-24T01:24:44.885Z,0
2018-04-24T01:25:25.403Z,0
2018-04-24T01:26:05.922Z,0
2018-04-24T01:26:46.448Z,0
2018-04-24T01:27:26.971Z,0
2018-04-24T01:28:07.509Z,0
2018-04-24T01:28:48.023Z,0
2018-04-24T01:29:28.550Z,0
2018-04-24T01:30:09.061Z,0
2018-04-24T01:30:49.586Z,0
2018-04-24T01:31:30.121Z,0
2018-04-24T01:32:10.630Z,0
2018-04-24T01:32:51.149Z,0
2018-04-24T01:33:31.663Z,0
2018-04-24T01:34:12.201Z,0
2018-04-24T01:34:52.700Z,0
2018-04-24T01:35:33.213Z,0
2018-04-24T01:36:13.729Z,0
2018-04-24T01:36:54.246Z,0
2018-04-24T01:37:34.778Z,0
2018-04-24T01:38:15.297Z,0
2018-04-24T01:38:55.817Z,0
2018-04-24T01:39:36.333Z,0
2018-04-24T01:40:16.857Z,0
2018-04-24T01:40:57.384Z,0
2018-04-24T01:41:37.908Z,0
2018-04-24T01:42:18.441Z,0
2018-04-24T01:42:58.955Z,0
2018-04-24T01:43:39.580Z,0
2018-04-24T01:44:20.107Z,0
2018-04-24T01:45:00.634Z,0
2018-04-24T01:45:41.156Z,0
2018-04-24T01:46:21.685Z,0
2018-04-24T01:47:02.194Z,0
2018-04-24T01:47:42.710Z,0
2018-04-24T01:48:23.249Z,0
2018-04-24T01:49:03.772Z,0
2018-04-24T01:49:44.326Z,0
2018-04-24T01:50:24.854Z,0
2018-04-24T01:51:05.372Z,0
2018-04-24T01:51:45.886Z,0
2018-04-24T01:52:26.403Z,0
2018-04-24T01:53:06.921Z,0
2018-04-24T01:53:47.454Z,0
2018-04-24T01:54:27.978Z,0
2018-04-24T01:55:08.494Z,0
2018-04-24T01:55:49.008Z,0
2018-04-24T01:56:29.525Z,0
2018-04-24T01:57:10.049Z,0
2018-04-24T01:57:50.563Z,0
2018-04-24T01:58:31.079Z,0
2018-04-24T01:59:11.591Z,0
2018-04-24T01:59:52.112Z,0
2018-04-24T02:00:32.629Z,0
2018-04-24T02:01:13.151Z,0
2018-04-24T02:01:53.665Z,0
2018-04-24T02:02:34.176Z,0
2018-04-24T02:03:14.703Z,0
2018-04-24T02:03:55.224Z,0
2018-04-24T02:04:35.743Z,0
2018-04-24T02:05:16.266Z,0
2018-04-24T02:05:56.790Z,0
2018-04-24T02:06:37.324Z,0
2018-04-24T02:07:17.844Z,0
2018-04-24T02:07:58.369Z,0
2018-04-24T02:08:38.883Z,0
2018-04-24T02:09:19.414Z,0
2018-04-24T02:09:59.929Z,0
2018-04-24T02:10:40.446Z,0
2018-04-24T02:11:20.967Z,0
2018-04-24T02:12:01.486Z,0
2018-04-24T02:12:41.999Z,0
2018-04-24T02:13:22.519Z,0
2018-04-24T02:14:03.047Z,0
2018-04-24T02:14:43.570Z,0
2018-04-24T02:15:24.089Z,0
2018-04-24T02:16:04.612Z,0
2018-04-24T02:16:45.137Z,0
2018-04-24T02:17:25.656Z,0
2018-04-24T02:18:06.189Z,0
2018-04-24T02:18:46.698Z,0
2018-04-24T02:19:27.210Z,0
2018-04-24T02:20:07.733Z,0
2018-04-24T02:20:48.242Z,0
2018-04-24T02:21:28.767Z,0
2018-04-24T02:22:09.282Z,0
2018-04-24T02:22:49.801Z,0
2018-04-24T02:23:30.319Z,0
2018-04-24T02:24:10.825Z,0
2018-04-24T02:24:51.347Z,0
2018-04-24T02:25:31.851Z,0
2018-04-24T02:26:12.371Z,0
2018-04-24T02:26:52.884Z,0
2018-04-24T02:27:33.406Z,0
2018-04-24T02:28:13.926Z,0
2018-04-24T02:28:54.452Z,0
2018-04-24T02:29:34.995Z,0
2018-04-24T02:30:15.501Z,0
2018-04-24T02:30:56.024Z,0
2018-04-24T02:31:36.606Z,0
2018-04-24T02:32:17.109Z,0
2018-04-24T02:32:57.626Z,0
2018-04-24T02:33:38.151Z,0
2018-04-24T02:34:18.663Z,0
2018-04-24T02:34:59.185Z,0
2018-04-24T02:35:39.708Z,0
2018-04-24T02:36:20.232Z,0
2018-04-24T02:37:00.750Z,0
2018-04-24T02:37:41.275Z,0
2018-04-24T02:38:21.801Z,0
2018-04-24T02:39:02.320Z,0
2018-04-24T02:39:42.843Z,0
2018-04-24T02:40:23.435Z,0
2018-04-24T02:41:03.895Z,0
2018-04-24T02:41:44.397Z,0
2018-04-24T02:42:24.909Z,0
2018-04-24T02:43:05.419Z,0
2018-04-24T02:43:45.945Z,0
2018-04-24T02:44:26.461Z,0
2018-04-24T02:45:06.989Z,0
2018-04-24T02:45:47.509Z,0
2018-04-24T02:46:28.039Z,0
2018-04-24T02:47:08.556Z,0
2018-04-24T02:47:49.073Z,0
2018-04-24T02:48:29.597Z,0
2018-04-24T02:49:10.117Z,0
2018-04-24T02:49:50.660Z,0
2018-04-24T02:50:31.177Z,0
2018-04-24T02:51:11.696Z,0
2018-04-24T02:51:52.220Z,0
2018-04-24T02:52:32.735Z,0
2018-04-24T02:53:13.252Z,0
2018-04-24T02:53:53.774Z,0
2018-04-24T02:54:34.290Z,0
2018-04-24T02:55:14.810Z,0
2018-04-24T02:55:55.396Z,0
2018-04-24T02:56:35.909Z,0
2018-04-24T02:57:16.434Z,0
2018-04-24T02:57:56.961Z,0
2018-04-24T02:58:37.479Z,0
2018-04-24T02:59:17.984Z,0
2018-04-24T02:59:58.493Z,0
2018-04-24T03:00:39.007Z,0
2018-04-24T03:01:19.548Z,0
2018-04-24T03:02:00.051Z,0
2018-04-24T03:02:40.566Z,0
2018-04-24T03:03:21.097Z,0
2018-04-24T03:04:01.613Z,0
2018-04-24T03:04:42.138Z,0
2018-04-24T03:05:22.668Z,0
2018-04-24T03:06:03.177Z,0
2018-04-24T03:06:43.699Z,0
2018-04-24T03:07:24.209Z,0
2018-04-24T03:08:04.740Z,0
2018-04-24T03:08:45.264Z,0
2018-04-24T03:09:25.790Z,0
2018-04-24T03:10:06.294Z,0
2018-04-24T03:10:46.840Z,0
2018-04-24T03:11:27.350Z,0
2018-04-24T03:12:07.871Z,0
2018-04-24T03:12:48.394Z,0
2018-04-24T03:13:28.917Z,0
2018-04-24T03:14:09.440Z,0
2018-04-24T03:14:49.959Z,0
2018-04-24T03:15:30.475Z,0
2018-04-24T03:16:10.993Z,0
2018-04-24T03:16:51.516Z,0
2018-04-24T03:17:32.051Z,0
2018-04-24T03:18:12.575Z,0
2018-04-24T03:18:53.096Z,0
2018-04-24T03:19:33.614Z,0
2018-04-24T03:20:14.128Z,0
2018-04-24T03:20:54.652Z,0
2018-04-24T03:21:35.247Z,0
2018-04-24T03:22:15.698Z,0
2018-04-24T03:22:56.216Z,0
2018-04-24T03:23:36.743Z,0
2018-04-24T03:24:17.258Z,0
2018-04-24T03:24:57.777Z,0
2018-04-24T03:25:38.282Z,0
2018-04-24T03:26:18.805Z,0
2018-04-24T03:26:59.338Z,0
2018-04-24T03:27:39.872Z,0
2018-04-24T03:28:20.400Z,0
2018-04-24T03:29:00.941Z,0
2018-04-24T03:29:41.473Z,0
2018-04-24T03:30:21.988Z,0
2018-04-24T03:31:02.507Z,0
2018-04-24T03:31:43.029Z,0
2018-04-24T03:32:23.557Z,0
2018-04-24T03:33:04.073Z,0
2018-04-24T03:33:44.584Z,0
2018-04-24T03:34:25.104Z,0
2018-04-24T03:35:05.643Z,0
2018-04-24T03:35:46.155Z,0
2018-04-24T03:36:26.667Z,0
2018-04-24T03:37:07.196Z,0
2018-04-24T03:37:47.710Z,0
2018-04-24T03:38:28.232Z,0
2018-04-24T03:39:08.743Z,0
2018-04-24T03:39:49.262Z,0
2018-04-24T03:40:29.781Z,0
2018-04-24T03:41:10.295Z,0
2018-04-24T03:41:50.812Z,0
2018-04-24T03:42:31.320Z,0
2018-04-24T03:43:11.843Z,0
2018-04-24T03:43:52.364Z,0
2018-04-24T03:44:32.872Z,0
2018-04-24T03:45:13.393Z,0
2018-04-24T03:45:53.917Z,0
2018-04-24T03:46:34.440Z,0
2018-04-24T03:47:14.949Z,0
2018-04-24T03:47:55.470Z,0
2018-04-24T03:48:35.996Z,0
2018-04-24T03:49:16.514Z,0
2018-04-24T03:49:57.034Z,0
2018-04-24T03:50:37.540Z,0
2018-04-24T03:51:18.077Z,0
2018-04-24T03:51:58.596Z,0
2018-04-24T03:52:39.125Z,0
2018-04-24T03:53:19.650Z,0
2018-04-24T03:54:00.159Z,0
2018-04-24T03:54:40.670Z,0
2018-04-24T03:55:21.190Z,0
2018-04-24T03:56:01.717Z,0
2018-04-24T03:56:42.236Z,0
2018-04-24T03:57:22.752Z,0
2018-04-24T03:58:03.309Z,0
2018-04-24T03:58:43.834Z,0
2018-04-24T03:59:24.343Z,0
2018-04-24T04:00:04.854Z,0
2018-04-24T04:00:45.371Z,0
2018-04-24T04:01:25.890Z,0
2018-04-24T04:02:06.396Z,0
2018-04-24T04:02:46.922Z,0
2018-04-24T04:03:27.441Z,0
2018-04-24T04:04:07.954Z,0
2018-04-24T04:04:48.479Z,0
2018-04-24T04:05:29.003Z,0
2018-04-24T04:06:09.519Z,0
2018-04-24T04:06:50.050Z,0
2018-04-24T04:07:30.616Z,0
2018-04-24T04:08:11.097Z,0
2018-04-24T04:08:51.609Z,0
2018-04-24T04:09:32.128Z,0
2018-04-24T04:10:12.649Z,0
2018-04-24T04:10:53.175Z,0
2018-04-24T04:11:33.696Z,0
2018-04-24T04:12:14.217Z,0
2018-04-24T04:12:54.742Z,0
2018-04-24T04:13:35.250Z,0
2018-04-24T04:14:15.779Z,0
2018-04-24T04:14:56.292Z,0
2018-04-24T04:15:36.810Z,0
2018-04-24T04:16:17.331Z,0
2018-04-24T04:16:57.850Z,0
2018-04-24T04:17:38.357Z,0
2018-04-24T04:18:18.878Z,0
2018-04-24T04:18:59.393Z,0
2018-04-24T04:19:39.911Z,0
2018-04-24T04:20:20.431Z,0
2018-04-24T04:21:00.951Z,0
2018-04-24T04:21:41.473Z,5
2018-04-24T04:22:21.993Z,5
2018-04-24T04:23:02.523Z,5
2018-04-24T04:23:43.038Z,5
2018-04-24T04:24:23.561Z,5
2018-04-24T04:25:04.105Z,5
2018-04-24T04:25:44.630Z,5
2018-04-24T04:26:25.115Z,5
2018-04-24T04:27:05.642Z,5
2018-04-24T04:27:46.157Z,5
2018-04-24T04:28:26.683Z,5
2018-04-24T04:29:07.202Z,5
2018-04-24T04:29:47.719Z,5
2018-04-24T04:30:28.262Z,5
2018-04-24T04:31:08.780Z,5
2018-04-24T04:31:49.294Z,5
2018-04-24T04:32:29.813Z,5
2018-04-24T04:33:10.330Z,5
2018-04-24T04:33:50.858Z,5
2018-04-24T04:34:31.375Z,5
2018-04-24T04:35:11.899Z,10
2018-04-24T04:35:52.417Z,10
2018-04-24T04:36:32.947Z,10
2018-04-24T04:37:13.464Z,10
2018-04-24T04:37:53.981Z,10
2018-04-24T04:38:34.539Z,10
2018-04-24T04:39:15.059Z,10
2018-04-24T04:39:55.577Z,10
2018-04-24T04:40:36.091Z,10
2018-04-24T04:41:16.613Z,10
2018-04-24T04:41:57.136Z,10
2018-04-24T04:42:37.671Z,10
2018-04-24T04:43:18.188Z,10
2018-04-24T04:43:58.711Z,10
2018-04-24T04:44:39.218Z,10
2018-04-24T04:45:19.741Z,10
2018-04-24T04:46:00.249Z,10
2018-04-24T04:46:40.788Z,15
2018-04-24T04:47:21.300Z,15
2018-04-24T04:48:01.814Z,15
2018-04-24T04:48:42.341Z,15
2018-04-24T04:49:22.876Z,15
2018-04-24T04:50:03.394Z,20
2018-04-24T04:50:43.924Z,20
2018-04-24T04:51:24.425Z,20
2018-04-24T04:52:04.937Z,25
2018-04-24T04:52:45.464Z,25
2018-04-24T04:53:25.982Z,30
2018-04-24T04:54:06.513Z,30
2018-04-24T04:54:47.037Z,30
2018-04-24T04:55:27.558Z,35
2018-04-24T04:56:08.119Z,35
2018-04-24T04:56:48.679Z,35
2018-04-24T04:57:29.164Z,35
2018-04-24T04:58:09.695Z,35
2018-04-24T04:58:50.219Z,40
2018-04-24T04:59:30.739Z,40
2018-04-24T05:00:11.276Z,45
2018-04-24T05:00:51.797Z,45
2018-04-24T05:01:32.331Z,50
2018-04-24T05:02:12.840Z,55
2018-04-24T05:02:53.364Z,55
2018-04-24T05:03:33.900Z,60
2018-04-24T05:04:14.427Z,60
2018-04-24T05:04:54.945Z,60
2018-04-24T05:05:35.457Z,60
2018-04-24T05:06:15.982Z,65
2018-04-24T05:06:56.503Z,65
2018-04-24T05:07:37.018Z,65
2018-04-24T05:08:17.544Z,70
2018-04-24T05:08:58.053Z,70
2018-04-24T05:09:38.580Z,75
2018-04-24T05:10:19.145Z,80
2018-04-24T05:10:59.663Z,80
2018-04-24T05:11:40.198Z,85
2018-04-24T05:12:20.719Z,90
2018-04-24T05:13:01.239Z,95
2018-04-24T05:13:41.870Z,95
2018-04-24T05:14:22.403Z,95
2018-04-24T05:15:02.901Z,100
2018-04-24T05:15:43.425Z,100
2018-04-24T05:16:23.952Z,100
2018-04-24T05:17:04.469Z,105
2018-04-24T05:17:45.001Z,105
2018-04-24T05:18:25.555Z,105
2018-04-24T05:19:06.088Z,105
2018-04-24T05:19:46.594Z,110
2018-04-24T05:20:27.125Z,110
2018-04-24T05:21:07.655Z,115
2018-04-24T05:21:48.174Z,110
2018-04-24T05:22:28.680Z,115
2018-04-24T05:25:02.666Z,125
2018-04-24T05:25:43.109Z,130
2018-04-24T05:26:23.610Z,135
2018-04-24T05:27:04.131Z,135
2018-04-24T05:27:44.655Z,125
2018-04-24T05:28:25.167Z,105
2018-04-24T05:29:05.703Z,130
2018-04-24T05:29:46.208Z,115
2018-04-24T05:30:26.743Z,120
2018-04-24T05:31:07.258Z,105
2018-04-24T05:31:47.792Z,125
2018-04-24T05:32:28.308Z,130
2018-04-24T05:33:08.813Z,130
2018-04-24T05:33:49.447Z,140
2018-04-24T05:34:29.897Z,140
2018-04-24T05:35:10.455Z,130
2018-04-24T05:35:51.017Z,145
2018-04-24T05:36:31.463Z,155
2018-04-24T05:37:11.982Z,125
2018-04-24T05:37:52.504Z,125
2018-04-24T05:38:33.016Z,150
2018-04-24T05:39:13.552Z,120
2018-04-24T05:39:54.072Z,135
2018-04-24T05:40:34.579Z,135
2018-04-24T05:41:15.093Z,95
2018-04-24T05:41:55.620Z,120
2018-04-24T05:42:36.132Z,125
2018-04-24T05:43:16.661Z,110
2018-04-24T05:43:57.183Z,120
2018-04-24T05:44:37.714Z,140
2018-04-24T05:45:18.301Z,150
2018-04-24T05:45:58.747Z,165
2018-04-24T05:46:39.267Z,150
2018-04-24T05:47:19.805Z,145
2018-04-24T05:48:00.319Z,150
2018-04-24T05:48:41.233Z,160
2018-04-24T05:49:21.759Z,170
2018-04-24T05:50:02.275Z,160
2018-04-24T05:50:42.860Z,165
2018-04-24T05:51:23.294Z,190
2018-04-24T05:52:03.802Z,175
2018-04-24T05:52:44.312Z,165
2018-04-24T05:53:24.849Z,155
2018-04-24T05:54:05.363Z,165
2018-04-24T05:54:45.876Z,155
2018-04-24T05:55:26.382Z,160
2018-04-24T05:56:06.909Z,150
2018-04-24T05:56:47.447Z,170
2018-04-24T05:57:27.950Z,165
2018-04-24T05:58:08.478Z,165
2018-04-24T05:58:49.021Z,190
2018-04-24T05:59:29.541Z,170
2018-04-24T06:00:10.058Z,160
2018-04-24T06:00:50.568Z,180
2018-04-24T06:01:31.084Z,175
2018-04-24T06:02:11.619Z,160
2018-04-24T06:02:52.141Z,165
2018-04-24T06:03:32.665Z,170
2018-04-24T06:04:13.181Z,180
2018-04-24T06:04:53.711Z,175
2018-04-24T06:05:34.228Z,185
2018-04-24T06:06:14.754Z,170
2018-04-24T06:06:55.269Z,170
2018-04-24T06:07:35.846Z,175
2018-04-24T06:08:16.373Z,165
2018-04-24T06:08:56.988Z,140
2018-04-24T06:09:37.489Z,140
2018-04-24T06:10:18.076Z,180
2018-04-24T06:10:58.590Z,150
2018-04-24T06:11:39.113Z,165
2018-04-24T06:12:19.640Z,180
2018-04-24T06:13:00.157Z,160
2018-04-24T06:13:40.670Z,120
2018-04-24T06:14:21.220Z,135
2018-04-24T06:15:01.789Z,150
2018-04-24T06:15:42.234Z,200
2018-04-24T06:16:22.748Z,150
2018-04-24T06:17:03.300Z,145
2018-04-24T06:17:43.824Z,140
2018-04-24T06:18:24.339Z,145
2018-04-24T06:19:04.861Z,170
2018-04-24T06:19:45.379Z,180
2018-04-24T06:20:25.905Z,175
2018-04-24T06:21:06.411Z,185
2018-04-24T06:21:46.942Z,210
2018-04-24T06:22:27.463Z,180
2018-04-24T06:23:07.972Z,150
2018-04-24T06:23:48.489Z,165
2018-04-24T06:24:29.012Z,195
2018-04-24T06:25:09.531Z,200
2018-04-24T06:25:50.048Z,215
2018-04-24T06:26:30.620Z,190
2018-04-24T06:27:11.173Z,155
2018-04-24T06:27:51.687Z,185
2018-04-24T06:28:32.287Z,185
2018-04-24T06:29:12.742Z,185
2018-04-24T06:29:53.273Z,165
2018-04-24T06:30:33.787Z,205
2018-04-24T06:31:14.307Z,170
2018-04-24T06:31:54.823Z,170
2018-04-24T06:32:35.350Z,150
2018-04-24T06:33:15.894Z,195
2018-04-24T06:33:56.415Z,205
2018-04-24T06:34:36.941Z,235
2018-04-24T06:35:17.481Z,200
2018-04-24T06:35:58.033Z,205
2018-04-24T06:36:38.545Z,130
2018-04-24T06:37:19.050Z,220
2018-04-24T06:37:59.637Z,185
2018-04-24T06:38:40.168Z,175
2018-04-24T06:39:20.673Z,200
2018-04-24T06:40:01.192Z,120
2018-04-24T06:40:41.712Z,145
2018-04-24T06:41:22.213Z,230
2018-04-24T06:42:02.717Z,190
2018-04-24T06:42:43.247Z,180
2018-04-24T06:43:23.760Z,175
2018-04-24T06:44:04.285Z,210
2018-04-24T06:44:44.810Z,195
2018-04-24T06:45:25.329Z,230
2018-04-24T06:46:05.825Z,210
2018-04-24T06:46:46.363Z,220
2018-04-24T06:47:26.875Z,200
2018-04-24T06:48:07.427Z,225
2018-04-24T06:48:47.947Z,230
2018-04-24T06:49:28.466Z,225
2018-04-24T06:50:08.982Z,235
2018-04-24T06:50:49.507Z,230
2018-04-24T06:51:30.034Z,200
2018-04-24T06:52:10.552Z,245
2018-04-24T06:52:51.079Z,210
2018-04-24T06:53:31.630Z,240
2018-04-24T06:54:12.163Z,215
2018-04-24T06:54:52.683Z,225
2018-04-24T06:55:33.210Z,220
2018-04-24T06:56:13.731Z,200
2018-04-24T06:56:54.236Z,185
2018-04-24T06:57:34.766Z,235
2018-04-24T06:58:15.275Z,225
2018-04-24T06:58:55.795Z,220
2018-04-24T06:59:36.335Z,225
2018-04-24T07:00:16.838Z,225
2018-04-24T07:00:57.466Z,250
2018-04-24T07:01:37.920Z,235
2018-04-24T07:02:18.408Z,230
2018-04-24T07:02:58.940Z,225
2018-04-24T07:03:39.448Z,250
2018-04-24T07:04:19.954Z,260
2018-04-24T07:05:00.448Z,255
2018-04-24T07:05:40.947Z,245
2018-04-24T07:06:21.498Z,245
2018-04-24T07:07:01.964Z,230
2018-04-24T07:07:42.477Z,240
2018-04-24T07:08:22.994Z,250
2018-04-24T07:09:03.550Z,260
2018-04-24T07:09:44.052Z,230
2018-04-24T07:10:24.594Z,245
2018-04-24T07:11:05.093Z,245
2018-04-24T07:11:45.618Z,235
2018-04-24T07:12:26.142Z,240
2018-04-24T07:13:06.681Z,205
2018-04-24T07:13:47.198Z,250
2018-04-24T07:14:28.061Z,260
2018-04-24T07:15:08.583Z,235
2018-04-24T07:15:49.096Z,235
2018-04-24T07:16:30.461Z,215
2018-04-24T07:17:10.972Z,240
2018-04-24T07:17:51.476Z,250
2018-04-24T07:18:31.967Z,240
2018-04-24T07:19:12.511Z,280
2018-04-24T07:19:53.034Z,235
2018-04-24T07:20:33.535Z,285
2018-04-24T07:21:14.069Z,300
2018-04-24T07:21:54.586Z,270
2018-04-24T07:22:35.112Z,255
2018-04-24T07:23:15.609Z,265
2018-04-24T07:23:56.103Z,250
2018-04-24T07:24:36.617Z,195
2018-04-24T07:25:17.124Z,215
2018-04-24T07:25:57.657Z,205
2018-04-24T07:26:38.170Z,235
2018-04-24T07:27:18.662Z,185
2018-04-24T07:27:59.187Z,225
2018-04-24T07:28:39.655Z,260
2018-04-24T07:29:20.252Z,225
2018-04-24T07:30:00.773Z,215
2018-04-24T07:30:41.271Z,275
2018-04-24T07:31:21.793Z,280
2018-04-24T07:32:02.336Z,280
2018-04-24T07:32:42.817Z,280
2018-04-24T07:33:23.335Z,275
2018-04-24T07:34:03.893Z,265
2018-04-24T07:34:44.596Z,255
2018-04-24T07:35:25.238Z,240
2018-04-24T07:36:05.703Z,220
2018-04-24T07:36:46.334Z,220
2018-04-24T07:37:26.696Z,210
2018-04-24T07:38:07.207Z,205
2018-04-24T07:38:47.673Z,205
2018-04-24T07:39:28.226Z,215
2018-04-24T07:40:08.689Z,210
2018-04-24T07:40:49.167Z,210
2018-04-24T07:41:29.689Z,185
2018-04-24T07:42:10.214Z,160
2018-04-24T07:42:50.742Z,190
2018-04-24T07:43:31.282Z,215
2018-04-24T07:44:11.773Z,170
2018-04-24T07:44:52.309Z,210
2018-04-24T07:45:32.852Z,215
2018-04-24T07:46:13.324Z,225
2018-04-24T07:46:53.929Z,220
2018-04-24T07:47:34.308Z,215
2018-04-24T07:48:14.799Z,215
2018-04-24T07:48:55.296Z,215
2018-04-24T07:49:35.792Z,220
2018-04-24T07:50:16.288Z,205
2018-04-24T07:50:56.792Z,225
2018-04-24T07:51:37.312Z,235
2018-04-24T07:52:17.842Z,225
2018-04-24T07:52:58.403Z,215
2018-04-24T07:53:38.891Z,205
2018-04-24T07:54:19.435Z,165
2018-04-24T07:54:59.972Z,170
2018-04-24T07:55:40.488Z,160
2018-04-24T07:56:21.006Z,200
2018-04-24T07:57:01.517Z,160
2018-04-24T07:57:42.108Z,185
2018-04-24T07:58:22.628Z,165
2018-04-24T07:59:03.139Z,165
2018-04-24T07:59:43.731Z,185
2018-04-24T08:00:24.249Z,185
2018-04-24T08:01:04.757Z,185
2018-04-24T08:01:45.278Z,180
2018-04-24T08:02:25.833Z,180
2018-04-24T08:03:06.359Z,185
2018-04-24T08:03:46.879Z,185
2018-04-24T08:04:27.398Z,190
2018-04-24T08:05:07.951Z,185
2018-04-24T08:05:48.466Z,185
2018-04-24T08:06:28.999Z,195
2018-04-24T08:07:09.534Z,190
2018-04-24T08:07:50.093Z,195
2018-04-24T08:08:30.614Z,200
2018-04-24T08:09:11.125Z,200
2018-04-24T08:09:51.670Z,195
2018-04-24T08:10:32.188Z,190
2018-04-24T08:11:12.698Z,190
2018-04-24T08:11:53.214Z,195
2018-04-24T08:12:33.774Z,195
2018-04-24T08:13:14.290Z,195
2018-04-24T08:13:54.821Z,210
2018-04-24T08:14:35.340Z,225
2018-04-24T08:15:15.871Z,220
2018-04-24T08:15:56.391Z,205
2018-04-24T08:16:36.952Z,195
2018-04-24T08:17:17.438Z,200
2018-04-24T08:17:57.984Z,195
2018-04-24T08:18:38.513Z,190
2018-04-24T08:19:19.032Z,185
2018-04-24T08:19:59.549Z,190
2018-04-24T08:20:40.068Z,200
2018-04-24T08:21:20.583Z,205
2018-04-24T08:22:01.093Z,210
2018-04-24T08:22:41.606Z,205
2018-04-24T08:23:22.133Z,205
2018-04-24T08:24:02.666Z,205
2018-04-24T08:24:43.177Z,210
2018-04-24T08:25:23.647Z,205
2018-04-24T08:26:04.369Z,205
2018-04-24T08:26:44.794Z,210
2018-04-24T08:27:25.381Z,210
2018-04-24T08:28:05.849Z,205
2018-04-24T08:28:46.306Z,210
2018-04-24T08:29:26.803Z,210
2018-04-24T08:30:07.330Z,210
2018-04-24T08:30:47.842Z,210
2018-04-24T08:31:28.348Z,210
2018-04-24T08:32:08.843Z,205
2018-04-24T08:32:49.383Z,205
2018-04-24T08:33:29.849Z,210
2018-04-24T08:34:10.329Z,210
2018-04-24T08:34:50.828Z,220
2018-04-24T08:35:31.398Z,220
2018-04-24T08:36:11.881Z,215
2018-04-24T08:36:52.374Z,220
2018-04-24T08:37:32.837Z,220
2018-04-24T08:38:13.332Z,215
2018-04-24T08:38:53.807Z,215
2018-04-24T08:39:34.347Z,215
2018-04-24T08:40:14.854Z,215
2018-04-24T08:40:55.335Z,215
2018-04-24T08:41:35.933Z,215
2018-04-24T08:42:16.467Z,215
2018-04-24T08:42:56.894Z,215
2018-04-24T08:43:37.490Z,215
2018-04-24T08:44:17.990Z,215
2018-04-24T08:44:58.516Z,220
2018-04-24T08:45:39.016Z,220
2018-04-24T08:46:19.515Z,220
2018-04-24T08:47:00.048Z,220
2018-04-24T08:47:40.594Z,220
2018-04-24T08:48:21.126Z,205
2018-04-24T08:49:01.912Z,210
2018-04-24T08:49:42.108Z,205
2018-04-24T08:50:22.577Z,205
2018-04-24T08:51:03.091Z,210
2018-04-24T08:51:43.595Z,205
2018-04-24T08:52:24.126Z,210
2018-04-24T08:53:04.642Z,205
2018-04-24T08:53:46.644Z,210
2018-04-24T08:54:27.154Z,210
2018-04-24T08:55:07.656Z,210
2018-04-24T08:55:48.168Z,210
2018-04-24T08:56:28.921Z,210
2018-04-24T08:57:09.428Z,210
2018-04-24T08:57:50.238Z,210
2018-04-24T08:58:30.713Z,210
2018-04-24T08:59:11.197Z,210
2018-04-24T08:59:51.727Z,200
2018-04-24T09:00:32.279Z,210
2018-04-24T09:01:12.726Z,215
2018-04-24T09:01:53.276Z,210
2018-04-24T09:02:33.713Z,210
2018-04-24T09:03:14.228Z,210
2018-04-24T09:03:54.757Z,210
2018-04-24T09:04:35.324Z,215
2018-04-24T09:05:15.793Z,210
2018-04-24T09:05:56.577Z,215
2018-04-24T09:06:37.081Z,215
2018-04-24T09:07:17.591Z,210
2018-04-24T09:07:58.073Z,210
2018-04-24T09:08:38.637Z,210
2018-04-24T09:09:19.088Z,205
2018-04-24T09:09:59.624Z,210
2018-04-24T09:10:40.036Z,215
2018-04-24T09:11:20.548Z,205
2018-04-24T09:12:05.235Z,215
2018-04-24T09:12:45.696Z,220
2018-04-24T09:13:26.179Z,225
2018-04-24T09:14:06.791Z,225
2018-04-24T09:14:47.202Z,225
2018-04-24T09:15:27.665Z,215
2018-04-24T09:16:08.157Z,210
2018-04-24T09:16:48.700Z,205
2018-04-24T09:17:29.159Z,205
2018-04-24T09:18:09.661Z,205
2018-04-24T09:18:50.154Z,210
2018-04-24T09:19:30.640Z,215
2018-04-24T09:20:11.168Z,220
2018-04-24T09:20:51.686Z,220
2018-04-24T09:21:32.215Z,225
2018-04-24T09:22:12.723Z,225
2018-04-24T09:22:53.253Z,230
2018-04-24T09:23:33.792Z,230
2018-04-24T09:24:14.320Z,230
2018-04-24T09:24:54.823Z,230
2018-04-24T09:25:35.273Z,225
2018-04-24T09:26:15.791Z,220
2018-04-24T09:26:56.349Z,220
2018-04-24T09:27:36.811Z,220
2018-04-24T09:28:17.322Z,220
2018-04-24T09:28:57.831Z,215
2018-04-24T09:29:38.364Z,220
2018-04-24T09:30:18.860Z,225
2018-04-24T09:30:59.348Z,220
2018-04-24T09:31:39.891Z,230
2018-04-24T09:32:20.413Z,230
2018-04-24T09:33:00.936Z,235
2018-04-24T09:33:41.537Z,235
2018-04-24T09:34:22.001Z,235
2018-04-24T09:35:02.513Z,230
2018-04-24T09:35:43.032Z,225
2018-04-24T09:36:23.549Z,225
2018-04-24T09:37:04.162Z,225
2018-04-24T09:37:44.593Z,230
2018-04-24T09:38:25.108Z,225
2018-04-24T09:39:05.716Z,225
2018-04-24T09:39:46.125Z,225
2018-04-24T09:40:26.657Z,225